createdAt,value
2022-10-11T00:02:26.519Z,3.40
2022-10-11T00:04:54.130Z,4.07
2022-10-11T00:07:21.819Z,3.45
2022-10-11T00:09:49.328Z,4.10
2022-10-11T00:12:16.888Z,3.33
2022-10-11T00:14:44.407Z,3.63
2022-10-11T00:17:12.051Z,4.10
2022-10-11T00:19:39.540Z,3.65
2022-10-11T00:22:07.097Z,3.58
2022-10-11T00:24:34.694Z,3.85
2022-10-11T00:27:02.193Z,3.80
2022-10-11T00:29:29.700Z,4.15
2022-10-11T00:31:57.345Z,3.80
2022-10-11T00:34:24.871Z,4.03
2022-10-11T00:36:52.474Z,3.50
2022-10-11T00:39:20.053Z,3.38
2022-10-11T00:41:49.106Z,3.50
2022-10-11T00:44:21.466Z,3.53
2022-10-11T00:46:55.895Z,3.65
2022-10-11T00:49:28.653Z,3.42
2022-10-11T00:51:59.246Z,3.78
2022-10-11T00:54:28.170Z,3.88
2022-10-11T00:56:59.188Z,3.65
2022-10-11T00:59:29.124Z,3.83
2022-10-11T01:01:56.712Z,3.75
2022-10-11T01:04:24.356Z,4.05
2022-10-11T01:06:52.674Z,3.50
2022-10-11T01:09:20.747Z,3.65
2022-10-11T01:11:50.063Z,4.18
2022-10-11T01:14:37.865Z,3.67
2022-10-11T01:17:20.793Z,3.90
2022-10-11T01:20:03.365Z,4.50
2022-10-11T01:22:49.301Z,3.85
2022-10-11T01:25:27.801Z,3.88
2022-10-11T01:28:07.512Z,4.10
2022-10-11T01:30:35.835Z,4.00
2022-10-11T01:33:03.378Z,3.75
2022-10-11T01:35:33.158Z,4.10
2022-10-11T01:38:03.382Z,3.75
2022-10-11T01:40:36.063Z,3.78
2022-10-11T01:43:04.678Z,3.85
2022-10-11T01:45:33.467Z,4.07
2022-10-11T01:48:08.800Z,3.83
2022-10-11T01:50:47.690Z,3.78
2022-10-11T01:53:34.166Z,3.92
2022-10-11T01:56:04.910Z,3.92
2022-10-11T01:58:49.394Z,4.30
2022-10-11T02:01:37.775Z,4.15
2022-10-11T02:04:16.069Z,4.40
2022-10-11T02:07:00.200Z,4.32
2022-10-11T02:09:33.612Z,4.25
2022-10-11T02:12:04.017Z,4.55
2022-10-11T02:14:33.544Z,4.60
2022-10-11T02:17:04.394Z,4.47
2022-10-11T02:19:35.180Z,4.68
2022-10-11T02:22:05.371Z,4.47
2022-10-11T02:24:34.207Z,4.80
2022-10-11T02:27:03.614Z,4.72
2022-10-11T02:29:33.114Z,5.05
2022-10-11T02:32:01.011Z,4.70
2022-10-11T02:34:31.269Z,4.80
2022-10-11T02:36:58.758Z,4.80
2022-10-11T02:39:32.544Z,4.35
2022-10-11T02:42:02.988Z,4.72
2022-10-11T02:44:36.521Z,4.50
2022-10-11T02:47:04.552Z,4.78
2022-10-11T02:49:32.450Z,4.35
2022-10-11T02:52:00.315Z,4.53
2022-10-11T02:54:28.165Z,4.75
2022-10-11T02:56:55.710Z,4.95
2022-10-11T02:59:23.295Z,5.35
2022-10-11T03:01:50.919Z,5.15
2022-10-11T03:04:18.563Z,4.93
2022-10-11T03:06:46.128Z,5.07
2022-10-11T03:09:13.641Z,5.28
2022-10-11T03:11:41.136Z,4.70
2022-10-11T03:14:08.693Z,4.53
2022-10-11T03:16:36.247Z,5.32
2022-10-11T03:19:03.858Z,4.72
2022-10-11T03:21:31.402Z,4.55
2022-10-11T03:23:58.944Z,4.88
2022-10-11T03:26:26.465Z,4.35
2022-10-11T03:28:54.073Z,4.70
2022-10-11T03:31:23.560Z,4.70
2022-10-11T03:33:51.109Z,4.70
2022-10-11T03:36:18.642Z,4.97
2022-10-11T03:38:46.164Z,4.72
2022-10-11T03:41:13.702Z,4.43
2022-10-11T03:43:41.237Z,4.10
2022-10-11T03:46:09.257Z,4.25
2022-10-11T03:48:37.200Z,4.65
2022-10-11T03:51:04.757Z,4.20
2022-10-11T03:53:32.279Z,4.13
2022-10-11T03:56:02.364Z,3.95
2022-10-11T03:58:32.311Z,4.13
2022-10-11T04:00:59.851Z,3.83
2022-10-11T04:03:27.410Z,4.05
2022-10-11T04:05:54.913Z,3.70
2022-10-11T04:08:22.499Z,3.78
2022-10-11T04:10:50.006Z,3.60
2022-10-11T04:13:17.780Z,4.43
2022-10-11T04:15:45.298Z,3.42
2022-10-11T04:18:12.847Z,3.42
2022-10-11T04:20:40.403Z,3.47
2022-10-11T04:23:07.978Z,3.53
2022-10-11T04:25:35.485Z,3.53
2022-10-11T04:28:03.170Z,3.35
2022-10-11T04:30:30.889Z,3.80
2022-10-11T04:32:58.808Z,3.45
2022-10-11T04:35:26.469Z,3.88
2022-10-11T04:37:53.981Z,3.67
2022-10-11T04:40:21.503Z,3.40
2022-10-11T04:42:50.497Z,3.70
2022-10-11T04:45:18.024Z,3.80
2022-10-11T04:47:45.518Z,3.38
2022-10-11T04:50:13.024Z,3.80
2022-10-11T04:52:40.570Z,3.03
2022-10-11T04:55:08.262Z,3.90
2022-10-11T04:57:35.832Z,3.95
2022-10-11T05:00:04.387Z,4.07
2022-10-11T05:02:32.235Z,3.80
2022-10-11T05:04:59.899Z,3.42
2022-10-11T05:07:27.431Z,4.07
2022-10-11T05:09:55.112Z,4.07
2022-10-11T05:12:23.207Z,3.67
2022-10-11T05:14:50.734Z,3.40
2022-10-11T05:17:18.483Z,4.25
2022-10-11T05:19:46.099Z,4.20
2022-10-11T05:22:13.611Z,3.55
2022-10-11T05:24:41.150Z,3.97
2022-10-11T05:27:08.679Z,3.78
2022-10-11T05:29:36.213Z,3.83
2022-10-11T05:32:03.949Z,3.60
2022-10-11T05:34:31.479Z,3.65
2022-10-11T05:36:59.038Z,3.30
2022-10-11T05:39:26.734Z,3.63
2022-10-11T05:41:54.272Z,3.58
2022-10-11T05:44:21.762Z,3.97
2022-10-11T05:46:49.262Z,4.20
2022-10-11T05:49:16.802Z,3.95
2022-10-11T05:51:44.384Z,4.00
2022-10-11T05:54:11.910Z,3.95
2022-10-11T05:56:39.422Z,4.20
2022-10-11T05:59:07.031Z,3.45
2022-10-11T06:01:34.593Z,3.92
2022-10-11T06:04:02.738Z,3.70
2022-10-11T06:06:30.246Z,3.70
2022-10-11T06:08:57.817Z,4.05
2022-10-11T06:11:26.944Z,4.28
2022-10-11T06:13:55.437Z,4.15
2022-10-11T06:16:22.936Z,4.05
2022-10-11T06:18:53.473Z,4.20
2022-10-11T06:21:21.486Z,4.45
2022-10-11T06:23:50.613Z,4.22
2022-10-11T06:26:18.612Z,3.80
2022-10-11T06:28:46.629Z,4.10
2022-10-11T06:31:14.453Z,4.07
2022-10-11T06:33:41.988Z,4.22
2022-10-11T06:36:13.413Z,4.18
2022-10-11T06:38:45.011Z,4.13
2022-10-11T06:41:23.486Z,4.45
2022-10-11T06:43:51.300Z,3.92
2022-10-11T06:46:19.704Z,4.40
2022-10-11T06:48:47.881Z,4.55
2022-10-11T06:51:16.371Z,4.50
2022-10-11T06:53:43.920Z,4.55
2022-10-11T06:56:13.673Z,4.22
2022-10-11T06:58:41.331Z,4.15
2022-10-11T07:01:10.056Z,4.72
2022-10-11T07:03:37.984Z,4.32
2022-10-11T07:06:10.214Z,3.90
2022-10-11T07:08:38.448Z,4.28
2022-10-11T07:11:07.861Z,4.13
2022-10-11T07:13:35.611Z,3.90
2022-10-11T07:16:04.638Z,4.45
2022-10-11T07:18:32.452Z,4.00
2022-10-11T07:21:02.958Z,3.95
2022-10-11T07:23:30.546Z,3.67
2022-10-11T07:25:58.163Z,4.43
2022-10-11T07:28:26.096Z,4.30
2022-10-11T07:30:53.754Z,4.18
2022-10-11T07:33:21.251Z,4.10
2022-10-11T07:35:49.283Z,4.00
2022-10-11T07:38:17.400Z,4.22
2022-10-11T07:40:46.357Z,4.25
2022-10-11T07:43:14.057Z,4.38
2022-10-11T07:45:42.224Z,4.00
2022-10-11T07:48:09.959Z,4.20
2022-10-11T07:50:37.862Z,4.57
2022-10-11T07:53:05.590Z,4.35
2022-10-11T07:55:40.130Z,4.22
2022-10-11T07:58:08.938Z,4.20
2022-10-11T08:00:36.560Z,4.47
2022-10-11T08:03:07.332Z,4.85
2022-10-11T08:05:35.017Z,4.72
2022-10-11T08:08:04.082Z,5.00
2022-10-11T08:10:31.601Z,4.25
2022-10-11T08:13:04.078Z,4.80
2022-10-11T08:15:32.023Z,4.35
2022-10-11T08:17:59.542Z,4.55
2022-10-11T08:20:27.055Z,4.20
2022-10-11T08:22:54.536Z,4.30
2022-10-11T08:25:22.105Z,4.93
2022-10-11T08:27:49.610Z,4.75
2022-10-11T08:30:17.160Z,4.90
2022-10-11T08:32:44.657Z,4.82
2022-10-11T08:35:12.266Z,5.10
2022-10-11T08:37:39.866Z,4.88
2022-10-11T08:40:07.725Z,4.93
2022-10-11T08:42:37.919Z,4.38
2022-10-11T08:45:11.425Z,4.35
2022-10-11T08:47:44.763Z,4.82
2022-10-11T08:50:20.313Z,5.25
2022-10-11T08:52:56.490Z,4.43
2022-10-11T08:55:32.501Z,4.43
2022-10-11T08:58:00.226Z,4.88
2022-10-11T09:00:31.095Z,5.15
2022-10-11T09:05:56.370Z,4.57
2022-10-11T09:08:33.061Z,4.80
2022-10-11T09:11:07.057Z,5.32
2022-10-11T09:13:51.799Z,5.10
2022-10-11T09:16:34.372Z,4.82
2022-10-11T09:19:11.058Z,4.55
2022-10-11T09:21:57.183Z,4.72
2022-10-11T09:24:34.060Z,4.68
2022-10-11T09:27:11.425Z,5.00
2022-10-11T09:30:17.372Z,4.72
2022-10-11T09:32:47.154Z,5.30
2022-10-11T09:35:16.234Z,5.53
2022-10-11T09:37:55.739Z,5.15
2022-10-11T09:40:23.390Z,5.22
2022-10-11T09:42:50.948Z,4.63
2022-10-11T09:45:20.013Z,5.28
2022-10-11T09:47:49.266Z,4.72
2022-10-11T09:50:19.390Z,4.65
2022-10-11T09:52:50.321Z,5.22
2022-10-11T09:55:50.675Z,4.67
2022-10-11T09:58:35.298Z,4.68
2022-10-11T10:01:07.933Z,4.32
2022-10-11T10:03:36.945Z,4.65
2022-10-11T10:06:09.478Z,4.20
2022-10-11T10:08:37.549Z,5.05
2022-10-11T10:11:06.499Z,4.47
2022-10-11T10:13:42.814Z,4.57
2022-10-11T10:16:21.456Z,4.38
2022-10-11T10:18:54.866Z,4.43
2022-10-11T10:21:45.947Z,5.00
2022-10-11T10:24:21.799Z,3.97
2022-10-11T10:27:08.288Z,4.75
2022-10-11T10:29:35.896Z,3.63
2022-10-11T10:32:14.203Z,3.80
2022-10-11T10:34:53.282Z,4.60
2022-10-11T10:37:25.980Z,4.22
2022-10-11T10:40:13.741Z,4.80
2022-10-11T10:42:41.250Z,4.60
2022-10-11T10:45:12.592Z,4.00
2022-10-11T10:47:44.261Z,3.95
2022-10-11T10:50:17.890Z,4.00
2022-10-11T10:52:54.575Z,4.25
2022-10-11T10:55:40.837Z,3.95
2022-10-11T10:58:22.503Z,4.07
2022-10-11T11:00:51.561Z,4.53
2022-10-11T11:03:26.999Z,3.72
2022-10-11T11:06:03.555Z,4.70
2022-10-11T11:08:49.921Z,4.53
2022-10-11T11:11:36.296Z,4.53
2022-10-11T11:14:22.690Z,3.97
2022-10-11T11:17:02.492Z,4.53
2022-10-11T11:19:30.202Z,4.35
2022-10-11T11:22:16.687Z,4.45
2022-10-11T11:24:57.765Z,3.80
2022-10-11T11:27:31.369Z,4.33
2022-10-11T11:30:05.269Z,4.07
2022-10-11T11:32:35.879Z,4.80
2022-10-11T11:35:05.175Z,4.07
2022-10-11T11:37:35.266Z,3.95
2022-10-11T11:40:07.092Z,3.70
2022-10-11T11:45:18.113Z,3.67
2022-10-11T11:47:48.554Z,3.97
2022-10-11T11:50:22.098Z,3.47
2022-10-11T11:53:00.000Z,3.63
2022-10-11T11:55:42.799Z,3.65
2022-10-11T11:58:10.274Z,4.00
2022-10-11T12:00:57.604Z,3.40
2022-10-11T12:03:27.903Z,3.85
2022-10-11T12:06:17.537Z,3.35
2022-10-11T12:08:49.993Z,4.50
2022-10-11T12:11:40.857Z,3.83
2022-10-11T12:14:19.475Z,3.28
2022-10-11T12:17:05.482Z,3.92
2022-10-11T12:19:33.290Z,3.33
2022-10-11T12:22:21.290Z,3.20
2022-10-11T12:24:56.215Z,3.20
2022-10-11T12:27:37.636Z,2.97
2022-10-11T12:30:06.239Z,3.28
2022-10-11T12:32:36.944Z,3.13
2022-10-11T12:35:23.338Z,3.38
2022-10-11T12:37:51.682Z,2.80
2022-10-11T12:40:36.685Z,2.83
2022-10-11T12:43:12.228Z,3.38
2022-10-11T12:45:41.139Z,3.13
2022-10-11T12:48:33.906Z,3.30
2022-10-11T12:51:03.669Z,3.33
2022-10-11T12:53:36.058Z,3.65
2022-10-11T12:56:12.670Z,3.20
2022-10-11T12:58:46.187Z,3.92
2022-10-11T13:01:17.408Z,3.83
2022-10-11T13:06:16.644Z,3.53
2022-10-11T13:08:45.749Z,3.70
2022-10-11T13:11:18.289Z,4.13
2022-10-11T13:13:49.201Z,3.83
2022-10-11T13:16:18.248Z,3.50
2022-10-11T13:18:47.141Z,3.72
2022-10-11T13:21:23.053Z,4.10
2022-10-11T13:23:54.745Z,3.58
2022-10-11T13:26:22.278Z,3.95
2022-10-11T13:28:49.890Z,3.42
2022-10-11T13:31:17.473Z,4.10
2022-10-11T13:33:45.897Z,4.00
2022-10-11T13:36:15.972Z,3.90
2022-10-11T13:38:50.618Z,4.00
2022-10-11T13:41:18.542Z,3.78
2022-10-11T13:43:46.126Z,3.55
2022-10-11T13:46:21.786Z,3.78
2022-10-11T13:49:21.931Z,4.50
2022-10-11T13:51:58.209Z,4.10
2022-10-11T13:54:25.767Z,4.30
2022-10-11T13:56:55.718Z,4.07
2022-10-11T13:59:28.104Z,4.70
2022-10-11T14:01:59.147Z,4.20
2022-10-11T14:04:29.762Z,4.40
2022-10-11T14:07:00.099Z,5.38
2022-10-11T14:09:31.762Z,4.80
2022-10-11T14:12:18.218Z,5.00
2022-10-11T14:14:48.326Z,5.22
2022-10-11T14:17:20.095Z,5.28
2022-10-11T14:19:48.938Z,5.50
2022-10-11T14:22:17.380Z,5.55
2022-10-11T14:24:48.045Z,5.68
2022-10-11T14:27:17.715Z,5.90
2022-10-11T14:29:55.545Z,5.00
2022-10-11T14:32:34.770Z,5.00
2022-10-11T14:35:02.446Z,5.30
2022-10-11T14:37:30.169Z,5.07
2022-10-11T14:39:57.690Z,5.38
2022-10-11T14:42:25.219Z,4.88
2022-10-11T14:44:52.785Z,5.10
2022-10-11T14:47:20.348Z,4.93
2022-10-11T14:49:47.881Z,4.78
2022-10-11T14:52:15.661Z,4.90
2022-10-11T14:54:43.250Z,5.13
2022-10-11T14:57:12.428Z,5.10
2022-10-11T14:59:41.071Z,5.30
2022-10-11T15:02:09.460Z,4.82
2022-10-11T15:04:36.997Z,4.93
2022-10-11T15:07:05.061Z,5.22
2022-10-11T15:09:32.835Z,5.85
2022-10-11T15:12:00.562Z,4.97
2022-10-11T15:14:28.302Z,4.90
2022-10-11T15:16:56.250Z,5.35
2022-10-11T15:19:24.852Z,5.30
2022-10-11T15:21:52.694Z,4.47
2022-10-11T15:24:20.242Z,4.93
2022-10-11T15:26:48.282Z,5.25
2022-10-11T15:29:20.308Z,5.15
2022-10-11T15:31:49.210Z,4.40
2022-10-11T15:34:16.954Z,5.78
2022-10-11T15:36:44.504Z,4.90
2022-10-11T15:39:26.946Z,5.47
2022-10-11T15:41:54.839Z,5.35
2022-10-11T15:44:22.354Z,5.18
2022-10-11T15:46:49.903Z,5.25
2022-10-11T15:49:17.885Z,4.97
2022-10-11T15:51:45.393Z,5.15
2022-10-11T15:54:12.890Z,5.28
2022-10-11T15:56:40.460Z,5.88
2022-10-11T15:59:08.168Z,5.40
2022-10-11T16:01:35.727Z,5.68
2022-10-11T16:04:03.229Z,4.95
2022-10-11T16:06:31.267Z,4.95
2022-10-11T16:08:58.776Z,4.60
2022-10-11T16:11:26.277Z,5.40
2022-10-11T16:13:53.795Z,4.70
2022-10-11T16:16:21.307Z,5.22
2022-10-11T16:18:50.328Z,5.72
2022-10-11T16:21:17.853Z,5.13
2022-10-11T16:23:45.382Z,5.78
2022-10-11T16:26:16.198Z,4.90
2022-10-11T16:28:43.921Z,4.57
2022-10-11T16:31:14.051Z,5.18
2022-10-11T16:33:47.978Z,4.97
2022-10-11T16:36:32.428Z,5.38
2022-10-11T16:39:00.978Z,5.50
2022-10-11T16:41:28.546Z,5.68
2022-10-11T16:43:56.407Z,5.72
2022-10-11T16:46:24.060Z,6.32
2022-10-11T16:48:54.066Z,6.50
2022-10-11T16:51:21.694Z,6.38
2022-10-11T16:53:49.266Z,5.07
2022-10-11T16:56:17.998Z,5.97
2022-10-11T16:58:45.531Z,5.63
2022-10-11T17:01:13.354Z,5.50
2022-10-11T17:03:40.937Z,5.75
2022-10-11T17:06:09.197Z,5.70
2022-10-11T17:08:37.026Z,6.25
2022-10-11T17:11:04.689Z,5.90
2022-10-11T17:13:32.449Z,7.07
2022-10-11T17:16:00.161Z,6.55
2022-10-11T17:18:27.740Z,7.00
2022-10-11T17:21:05.290Z,7.60
2022-10-11T17:23:33.631Z,7.10
2022-10-11T17:26:05.276Z,6.18
2022-10-11T17:28:37.252Z,6.13
2022-10-11T17:31:05.801Z,6.93
2022-10-11T17:33:33.768Z,8.10
2022-10-11T17:36:01.675Z,7.35
2022-10-11T17:38:29.761Z,7.43
2022-10-11T17:41:04.758Z,8.18
2022-10-11T17:43:32.582Z,7.80
2022-10-11T17:46:01.544Z,8.23
2022-10-11T17:48:29.593Z,7.82
2022-10-11T17:50:57.249Z,7.80
2022-10-11T17:53:24.930Z,9.20
2022-10-11T17:55:54.102Z,8.90
2022-10-11T17:58:21.611Z,9.20
2022-10-11T18:00:49.366Z,8.93
2022-10-11T18:03:16.963Z,8.48
2022-10-11T18:05:44.486Z,8.73
2022-10-11T18:08:12.038Z,8.43
2022-10-11T18:10:42.867Z,9.13
2022-10-11T18:13:15.328Z,9.20
2022-10-11T18:15:43.009Z,11.00
2022-10-11T18:18:11.714Z,11.05
2022-10-11T18:20:39.293Z,10.93
2022-10-11T18:23:06.773Z,11.57
2022-10-11T18:25:34.453Z,11.13
2022-10-11T18:28:01.963Z,10.40
2022-10-11T18:30:29.599Z,10.27
2022-10-11T18:32:57.223Z,10.93
2022-10-11T18:35:24.926Z,11.35
2022-10-11T18:37:53.463Z,10.55
2022-10-11T18:40:23.602Z,10.32
2022-10-11T18:42:51.114Z,12.10
2022-10-11T18:45:18.999Z,12.60
2022-10-11T18:47:46.602Z,11.80
2022-10-11T18:50:14.110Z,13.27
2022-10-11T18:52:44.561Z,11.32
2022-10-11T18:55:12.240Z,11.43
2022-10-11T18:57:39.953Z,12.77
2022-10-11T19:00:23.281Z,12.80
2022-10-11T19:02:55.646Z,11.90
2022-10-11T19:05:23.259Z,12.02
2022-10-11T19:07:50.838Z,11.85
2022-10-11T19:10:18.420Z,11.77
2022-10-11T19:12:45.995Z,12.45
2022-10-11T19:15:13.599Z,12.10
2022-10-11T19:17:41.284Z,12.23
2022-10-11T19:20:08.961Z,11.63
2022-10-11T19:22:36.519Z,10.50
2022-10-11T19:25:04.098Z,12.05
2022-10-11T19:27:31.628Z,11.82
2022-10-11T19:30:00.303Z,12.73
2022-10-11T19:32:27.920Z,11.57
2022-10-11T19:34:55.734Z,11.77
2022-10-11T19:37:23.323Z,11.02
2022-10-11T19:39:50.974Z,11.80
2022-10-11T19:42:18.494Z,12.65
2022-10-11T19:44:46.149Z,12.30
2022-10-11T19:47:13.861Z,11.80
2022-10-11T19:49:41.399Z,12.50
2022-10-11T19:52:09.490Z,11.50
2022-10-11T19:54:37.014Z,13.27
2022-10-11T19:57:04.619Z,12.10
2022-10-11T19:59:32.174Z,12.32
2022-10-11T20:01:59.961Z,12.52
2022-10-11T20:04:56.392Z,13.32
2022-10-11T20:07:15.360Z,14.50
2022-10-11T20:09:42.859Z,11.82
2022-10-11T20:12:10.557Z,12.48
2022-10-11T20:14:38.089Z,12.60
2022-10-11T20:17:05.627Z,11.27
2022-10-11T20:19:33.153Z,12.20
2022-10-11T20:22:01.669Z,11.98
2022-10-11T20:24:34.113Z,13.05
2022-10-11T20:27:02.883Z,12.93
2022-10-11T20:29:30.390Z,12.88
2022-10-11T20:31:58.803Z,12.65
2022-10-11T20:34:27.559Z,13.95
2022-10-11T20:36:55.088Z,13.13
2022-10-11T20:39:23.576Z,13.13
2022-10-11T20:41:51.134Z,14.32
2022-10-11T20:44:18.703Z,12.57
2022-10-11T20:46:46.290Z,12.95
2022-10-11T20:49:14.086Z,14.45
2022-10-11T20:51:42.289Z,14.18
2022-10-11T20:54:10.122Z,14.23
2022-10-11T20:56:37.711Z,14.32
2022-10-11T20:59:06.284Z,12.65
2022-10-11T21:01:38.565Z,13.73
2022-10-11T21:04:07.102Z,13.82
2022-10-11T21:06:35.065Z,14.80
2022-10-11T21:09:02.844Z,13.90
2022-10-11T21:11:33.583Z,14.27
2022-10-11T21:14:02.234Z,14.55
2022-10-11T21:16:29.792Z,14.80
2022-10-11T21:18:58.101Z,14.35
2022-10-11T21:21:26.175Z,14.13
2022-10-11T21:23:54.951Z,14.55
2022-10-11T21:26:22.532Z,13.77
2022-10-11T21:28:50.372Z,13.95
2022-10-11T21:31:18.781Z,13.82
2022-10-11T21:33:46.372Z,14.52
2022-10-11T21:36:15.114Z,15.98
2022-10-11T21:38:42.765Z,15.55
2022-10-11T21:41:12.295Z,15.32
2022-10-11T21:43:40.014Z,15.18
2022-10-11T21:46:10.540Z,15.20
2022-10-11T21:48:38.121Z,15.57
2022-10-11T21:51:05.788Z,14.40
2022-10-11T21:53:33.590Z,15.75
2022-10-11T21:56:01.586Z,15.05
2022-10-11T21:58:29.315Z,15.38
2022-10-11T22:00:57.014Z,15.70
2022-10-11T22:03:24.741Z,15.10
2022-10-11T22:05:52.247Z,15.00
2022-10-11T22:08:19.900Z,14.50
2022-10-11T22:10:53.329Z,14.65
2022-10-11T22:13:20.898Z,14.15
2022-10-11T22:15:48.921Z,14.85
2022-10-11T22:18:16.470Z,14.60
2022-10-11T22:20:43.964Z,15.95
2022-10-11T22:23:11.793Z,15.15
2022-10-11T22:25:39.785Z,16.05
2022-10-11T22:28:07.394Z,15.30
2022-10-11T22:30:35.314Z,15.00
2022-10-11T22:33:03.012Z,15.50
2022-10-11T22:35:32.520Z,16.38
2022-10-11T22:40:29.842Z,15.15
2022-10-11T22:42:57.524Z,15.88
2022-10-11T22:45:25.120Z,14.30
2022-10-11T22:47:52.621Z,15.60
2022-10-11T22:50:20.134Z,17.67
2022-10-11T22:52:47.637Z,16.48
2022-10-11T22:55:19.714Z,17.92
2022-10-11T22:57:47.700Z,17.80
2022-10-11T23:00:15.471Z,17.17
2022-10-11T23:02:43.123Z,16.63
2022-10-11T23:05:10.657Z,17.02
2022-10-11T23:07:38.550Z,18.10
2022-10-11T23:10:06.526Z,18.55
2022-10-11T23:12:34.684Z,17.13
2022-10-11T23:15:02.192Z,17.88
2022-10-11T23:17:29.706Z,18.65
2022-10-11T23:19:57.421Z,18.13
2022-10-11T23:22:25.002Z,18.55
2022-10-11T23:24:52.511Z,18.33
2022-10-11T23:27:20.061Z,18.10
2022-10-11T23:29:47.613Z,17.58
2022-10-11T23:32:15.221Z,18.65
2022-10-11T23:34:42.954Z,18.92
2022-10-11T23:37:10.499Z,18.10
2022-10-11T23:39:38.025Z,18.85
2022-10-11T23:42:05.572Z,17.67
2022-10-11T23:44:33.134Z,18.10
2022-10-11T23:47:00.682Z,17.80
2022-10-11T23:49:28.190Z,17.10
2022-10-11T23:51:55.782Z,18.20
2022-10-11T23:54:23.320Z,19.20
2022-10-11T23:56:50.828Z,17.70
2022-10-11T23:59:18.334Z,17.83
